Time;durP1;ratioP1;P1;durP2;ratioP2;P2;SDS_P1;SDS_P2;PMS_P1;PMS_P2;Temp;Humidity;BMP_temperature;BMP_pressure;BME280_temperature;BME280_humidity;BME280_pressure;Samples;Min_cycle;Max_cycle;Signal;HPM_P1;HPM_P2
2021/05/12 00:00:25;;;;;;;0.10;0.10;;;17.90;84.60;;;;;;4203222;28;20048;-49
2021/05/12 00:02:48;;;;;;;0.10;0.10;;;17.80;84.60;;;;;;4190609;28;20059;-47
2021/05/12 00:05:12;;;;;;;0.52;0.35;;;17.90;84.60;;;;;;4191242;28;20055;-49
2021/05/12 00:07:34;;;;;;;0.10;0.10;;;17.90;84.60;;;;;;4191331;28;20072;-46
2021/05/12 00:09:56;;;;;;;0.00;0.00;;;17.90;84.60;;;;;;4192348;28;20147;-46
2021/05/12 00:12:17;;;;;;;0.10;0.10;;;17.90;84.70;;;;;;4191147;28;20045;-47
2021/05/12 00:14:40;;;;;;;0.00;0.00;;;17.80;84.60;;;;;;4191112;28;20040;-48
2021/05/12 00:17:03;;;;;;;0.52;0.30;;;17.80;84.60;;;;;;4191081;28;20556;-50
2021/05/12 00:19:25;;;;;;;0.00;0.00;;;17.90;85.60;;;;;;4195452;28;20521;-44
2021/05/12 00:21:49;;;;;;;0.40;0.40;;;17.90;84.70;;;;;;4207596;28;20074;-49
2021/05/12 00:24:10;;;;;;;0.00;0.00;;;17.90;84.70;;;;;;4207455;28;20109;-47
2021/05/12 00:26:37;;;;;;;0.00;0.00;;;17.80;84.70;;;;;;4207880;28;20135;-46
2021/05/12 00:29:02;;;;;;;0.03;0.03;;;17.90;84.70;;;;;;4206749;28;20048;-46
2021/05/12 00:31:23;;;;;;;0.00;0.00;;;17.80;84.70;;;;;;4208051;28;20105;-45
2021/05/12 00:33:44;;;;;;;0.10;0.10;;;17.80;84.70;;;;;;4211308;28;20083;-46
2021/05/12 00:36:07;;;;;;;0.00;0.00;;;17.90;84.80;;;;;;4211024;28;20567;-46
2021/05/12 00:38:29;;;;;;;0.55;0.55;;;17.80;84.80;;;;;;4210127;28;20058;-47
2021/05/12 00:40:50;;;;;;;0.03;0.03;;;17.80;84.80;;;;;;4201700;28;20129;-45
2021/05/12 00:43:12;;;;;;;0.00;0.00;;;17.80;84.80;;;;;;4194098;28;20046;-45
2021/05/12 00:45:33;;;;;;;0.63;0.63;;;17.80;84.80;;;;;;4193987;28;20056;-48
2021/05/12 00:47:54;;;;;;;;;;;17.80;84.80;;;;;;4194550;28;20106;-46
2021/05/12 00:50:18;;;;;;;0.05;0.05;;;17.80;84.90;;;;;;4194061;28;20349;-48
2021/05/12 00:52:39;;;;;;;0.10;0.10;;;17.80;85.70;;;;;;4194552;28;20056;-48
2021/05/12 00:55:02;;;;;;;0.80;0.80;;;17.80;84.80;;;;;;4208725;28;20047;-47
2021/05/12 00:57:24;;;;;;;0.00;0.00;;;17.80;84.90;;;;;;4210832;28;20044;-50
2021/05/12 00:59:46;;;;;;;0.10;0.10;;;17.80;84.80;;;;;;4209635;28;20184;-46
2021/05/12 01:02:08;;;;;;;0.00;0.00;;;17.80;84.90;;;;;;4210761;28;20500;-47
2021/05/12 01:04:29;;;;;;;0.03;0.03;;;17.80;84.90;;;;;;4199924;28;20067;-47
2021/05/12 01:06:51;;;;;;;;;;;17.80;85.00;;;;;;4195664;28;20457;-47
2021/05/12 01:09:13;;;;;;;0.10;0.10;;;17.80;85.10;;;;;;4204324;28;19920;-50
2021/05/12 01:11:37;;;;;;;0.45;0.45;;;17.80;85.00;;;;;;4210503;28;20048;-45
2021/05/12 01:13:58;;;;;;;0.10;0.10;;;17.80;85.10;;;;;;4209723;28;20048;-46
2021/05/12 01:16:21;;;;;;;0.05;0.05;;;17.80;85.10;;;;;;4210132;28;20052;-46
2021/05/12 01:18:43;;;;;;;0.00;0.00;;;17.70;85.10;;;;;;4201801;28;20079;-47
2021/05/12 01:21:07;;;;;;;0.20;0.20;;;17.80;85.10;;;;;;4193653;28;20044;-46
2021/05/12 01:23:30;;;;;;;0.00;0.00;;;17.80;85.10;;;;;;4196963;28;20468;-46
2021/05/12 01:25:54;;;;;;;0.00;0.00;;;17.80;85.10;;;;;;4210514;28;20047;-45
2021/05/12 01:28:17;;;;;;;0.40;0.40;;;17.80;85.10;;;;;;4209609;28;20898;-47
2021/05/12 01:30:40;;;;;;;0.00;0.00;;;17.80;85.10;;;;;;4209982;28;20127;-45
2021/05/12 01:33:02;;;;;;;0.30;0.30;;;17.80;85.10;;;;;;4210357;28;20047;-46
2021/05/12 01:35:23;;;;;;;0.13;0.13;;;17.70;85.10;;;;;;4193579;28;20139;-46
2021/05/12 01:37:46;;;;;;;0.00;0.00;;;17.70;85.00;;;;;;4193127;28;20059;-46
2021/05/12 01:40:09;;;;;;;0.00;0.00;;;17.70;86.00;;;;;;4202429;28;20040;-47
2021/05/12 01:42:30;;;;;;;0.00;0.00;;;17.70;85.30;;;;;;4196436;28;20064;-45
2021/05/12 01:44:52;;;;;;;;;;;17.70;85.20;;;;;;4193280;28;20041;-45
2021/05/12 01:47:13;;;;;;;0.75;0.75;;;17.70;85.30;;;;;;4193198;28;19928;-50
2021/05/12 01:49:35;;;;;;;0.47;0.47;;;17.70;85.20;;;;;;4178057;28;20068;-47
2021/05/12 01:51:56;;;;;;;;;;;17.70;85.20;;;;;;4194964;28;20045;-45
2021/05/12 01:54:19;;;;;;;0.00;0.00;;;17.70;85.30;;;;;;4208887;28;19963;-45
2021/05/12 01:56:41;;;;;;;0.65;0.65;;;17.70;85.30;;;;;;4209484;28;20079;-47
2021/05/12 01:59:03;;;;;;;0.45;0.45;;;17.70;85.30;;;;;;4209334;28;20036;-45
2021/05/12 02:01:31;;;;;;;0.10;0.10;;;17.70;85.40;;;;;;4209465;28;20540;-46
2021/05/12 02:03:53;;;;;;;0.85;0.70;;;17.70;85.40;;;;;;4208997;28;20048;-47
2021/05/12 02:06:17;;;;;;;0.00;0.00;;;17.70;85.40;;;;;;4209837;28;20128;-46
2021/05/12 02:08:40;;;;;;;0.00;0.00;;;17.70;85.30;;;;;;4208296;28;20051;-46
2021/05/12 02:11:04;;;;;;;0.98;0.98;;;17.70;85.30;;;;;;4209703;28;20043;-46
2021/05/12 02:13:29;;;;;;;0.00;0.00;;;17.70;85.30;;;;;;4208500;28;20067;-45
2021/05/12 02:15:54;;;;;;;0.20;0.20;;;17.70;85.40;;;;;;4209366;28;20052;-47
2021/05/12 02:18:16;;;;;;;0.08;0.08;;;17.70;85.30;;;;;;4209211;28;20047;-48
2021/05/12 02:20:39;;;;;;;1.15;1.05;;;17.70;85.30;;;;;;4192904;28;20052;-45
2021/05/12 02:23:02;;;;;;;0.00;0.00;;;17.70;85.30;;;;;;4195816;28;20131;-46
2021/05/12 02:25:23;;;;;;;0.00;0.00;;;17.70;85.40;;;;;;4209213;28;20058;-48
2021/05/12 02:27:49;;;;;;;0.00;0.00;;;17.60;85.40;;;;;;4207087;28;20076;-44
2021/05/12 02:30:12;;;;;;;0.73;0.63;;;17.70;85.40;;;;;;4192508;28;20048;-46
2021/05/12 02:32:33;;;;;;;0.05;0.05;;;17.70;86.30;;;;;;4193007;28;20763;-47
2021/05/12 02:34:55;;;;;;;0.10;0.10;;;17.60;85.30;;;;;;4192670;28;20562;-46
2021/05/12 02:37:16;;;;;;;0.20;0.20;;;17.70;85.40;;;;;;4176089;28;20049;-45
2021/05/12 02:39:38;;;;;;;1.05;1.00;;;17.60;85.30;;;;;;4181851;28;20055;-49
2021/05/12 02:42:00;;;;;;;0.00;0.00;;;17.70;85.40;;;;;;4184886;28;20048;-47
2021/05/12 02:44:23;;;;;;;0.00;0.00;;;17.70;85.40;;;;;;4176775;28;20072;-46
2021/05/12 02:46:45;;;;;;;0.10;0.10;;;17.70;85.40;;;;;;4191655;28;20064;-47
2021/05/12 02:49:06;;;;;;;0.00;0.00;;;17.70;85.50;;;;;;4192019;28;20470;-47
2021/05/12 02:51:28;;;;;;;0.47;0.47;;;17.60;85.40;;;;;;4190916;28;20044;-45
2021/05/12 02:53:50;;;;;;;0.00;0.00;;;17.60;85.50;;;;;;4191689;28;20410;-46
2021/05/12 02:56:12;;;;;;;0.17;0.15;;;17.60;85.50;;;;;;4191040;28;20051;-47
2021/05/12 02:58:36;;;;;;;0.55;0.55;;;17.60;85.60;;;;;;4185575;28;20496;-49
2021/05/12 03:00:58;;;;;;;;;;;17.60;85.60;;;;;;4186941;28;20055;-44
2021/05/12 03:03:20;;;;;;;0.40;0.40;;;17.60;85.70;;;;;;4190219;28;20491;-45
2021/05/12 03:05:42;;;;;;;1.65;1.55;;;17.60;85.80;;;;;;4190645;28;20048;-46
2021/05/12 03:08:22;;;;;;;0.93;0.52;;;17.60;85.90;;;;;;4191680;28;20183;-46
2021/05/12 03:10:44;;;;;;;0.20;0.20;;;17.60;85.90;;;;;;4175452;28;20460;-47
2021/05/12 03:13:07;;;;;;;0.20;0.20;;;17.60;85.70;;;;;;4185011;28;20048;-45
2021/05/12 03:15:28;;;;;;;0.75;0.75;;;17.60;85.70;;;;;;4191854;28;20040;-46
2021/05/12 03:17:52;;;;;;;0.40;0.35;;;17.60;85.70;;;;;;4192370;28;20044;-46
2021/05/12 03:20:16;;;;;;;0.00;0.00;;;17.60;85.70;;;;;;4176304;28;20056;-46
2021/05/12 03:22:37;;;;;;;0.10;0.10;;;17.60;85.70;;;;;;4205056;28;20509;-47
2021/05/12 03:25:00;;;;;;;0.13;0.13;;;17.60;85.70;;;;;;4192370;28;20074;-45
2021/05/12 03:27:22;;;;;;;0.30;0.30;;;17.60;85.70;;;;;;4194601;28;20471;-47
2021/05/12 03:29:43;;;;;;;0.43;0.43;;;17.60;85.80;;;;;;4193081;28;20048;-45
2021/05/12 03:32:05;;;;;;;0.32;0.32;;;17.60;85.80;;;;;;4193928;28;20056;-49
2021/05/12 03:34:28;;;;;;;1.85;0.47;;;17.60;85.90;;;;;;4204143;28;20135;-47
2021/05/12 03:36:49;;;;;;;0.10;0.10;;;17.60;85.90;;;;;;4208406;28;20101;-48
2021/05/12 03:39:11;;;;;;;1.90;1.08;;;17.60;85.90;;;;;;4200401;28;20055;-48
2021/05/12 03:41:33;;;;;;;0.00;0.00;;;17.60;85.90;;;;;;4208313;28;20051;-46
2021/05/12 03:43:54;;;;;;;0.05;0.05;;;17.60;85.90;;;;;;4207826;28;20089;-47
2021/05/12 03:46:16;;;;;;;0.98;0.98;;;17.60;85.90;;;;;;4208201;28;20414;-46
2021/05/12 03:48:38;;;;;;;0.22;0.22;;;17.60;85.80;;;;;;4207984;28;20050;-45
2021/05/12 03:51:00;;;;;;;0.52;0.52;;;17.60;85.90;;;;;;4206671;28;20063;-47
2021/05/12 03:53:22;;;;;;;0.55;0.55;;;17.60;85.90;;;;;;4194735;28;20044;-46
2021/05/12 03:55:43;;;;;;;0.30;0.30;;;17.60;86.80;;;;;;4191317;28;20613;-48
2021/05/12 03:58:05;;;;;;;1.05;1.05;;;17.60;86.00;;;;;;4194052;28;20499;-45
2021/05/12 04:00:27;;;;;;;0.47;0.47;;;17.60;85.90;;;;;;4191439;28;20120;-50
2021/05/12 04:02:49;;;;;;;0.00;0.00;;;17.60;85.90;;;;;;4190524;28;20557;-46
2021/05/12 04:05:12;;;;;;;0.43;0.43;;;17.60;86.00;;;;;;4174590;28;20156;-45
2021/05/12 04:07:35;;;;;;;0.52;0.52;;;17.60;86.00;;;;;;4173174;28;20523;-46
2021/05/12 04:09:56;;;;;;;0.00;0.00;;;17.60;86.00;;;;;;4174616;28;20044;-47
2021/05/12 04:12:17;;;;;;;;;;;17.50;86.00;;;;;;4175116;28;20048;-45
2021/05/12 04:14:39;;;;;;;0.20;0.20;;;17.60;86.10;;;;;;4174849;28;19932;-49
2021/05/12 04:17:02;;;;;;;0.00;0.00;;;17.60;86.90;;;;;;4174671;28;20571;-45
2021/05/12 04:19:23;;;;;;;0.13;0.13;;;17.50;86.00;;;;;;4184092;28;20765;-48
2021/05/12 04:21:46;;;;;;;0.25;0.25;;;17.50;86.00;;;;;;4183676;28;20144;-46
2021/05/12 04:24:08;;;;;;;0.20;0.20;;;17.60;86.10;;;;;;4190695;28;20037;-50
2021/05/12 04:26:30;;;;;;;0.03;0.03;;;17.60;86.10;;;;;;4191067;28;20098;-51
2021/05/12 04:28:52;;;;;;;0.10;0.10;;;17.60;86.10;;;;;;4187045;28;20049;-51
2021/05/12 04:31:14;;;;;;;0.30;0.30;;;17.60;86.10;;;;;;4191011;28;20055;-49
2021/05/12 04:33:35;;;;;;;0.00;0.00;;;17.50;86.00;;;;;;4191123;28;20517;-46
2021/05/12 04:35:57;;;;;;;0.30;0.20;;;17.50;86.00;;;;;;4191020;28;20048;-48
2021/05/12 04:38:18;;;;;;;;;;;17.50;86.00;;;;;;4204256;28;20490;-47
2021/05/12 04:40:40;;;;;;;0.50;0.45;;;17.50;86.10;;;;;;4205284;28;19958;-46
2021/05/12 04:43:01;;;;;;;3.92;0.68;;;17.60;86.00;;;;;;4196836;28;20044;-45
2021/05/12 04:45:23;;;;;;;1.88;1.10;;;17.60;86.90;;;;;;4190957;28;20044;-46
2021/05/12 04:47:54;;;;;;;1.10;1.05;;;17.50;86.10;;;;;;4189565;28;20053;-45
2021/05/12 04:50:16;;;;;;;0.00;0.00;;;17.50;86.00;;;;;;4206288;28;20067;-46
2021/05/12 04:52:37;;;;;;;0.30;0.30;;;17.50;86.00;;;;;;4207475;28;20143;-48
2021/05/12 04:54:59;;;;;;;0.30;0.30;;;17.50;86.00;;;;;;4207571;28;20124;-46
2021/05/12 04:57:21;;;;;;;0.00;0.00;;;17.50;86.00;;;;;;4190803;28;20418;-46
2021/05/12 04:59:43;;;;;;;0.05;0.05;;;17.50;86.10;;;;;;4192101;28;20419;-45
2021/05/12 05:02:06;;;;;;;0.10;0.10;;;17.50;86.10;;;;;;4193710;28;20048;-45
2021/05/12 05:04:27;;;;;;;0.55;0.35;;;17.50;86.10;;;;;;4193739;28;20049;-45
2021/05/12 05:06:49;;;;;;;0.35;0.35;;;17.50;86.20;;;;;;4192304;28;20497;-45
2021/05/12 05:09:11;;;;;;;1.00;0.98;;;17.50;86.20;;;;;;4188408;28;20060;-48
2021/05/12 05:11:32;;;;;;;0.80;0.75;;;17.50;86.20;;;;;;4176324;28;20057;-47
2021/05/12 05:13:55;;;;;;;1.45;0.82;;;17.50;86.10;;;;;;4190360;28;20503;-47
2021/05/12 05:16:16;;;;;;;0.45;0.45;;;17.50;86.10;;;;;;4190762;28;20752;-48
2021/05/12 05:18:39;;;;;;;0.20;0.20;;;17.50;86.20;;;;;;4190563;28;20041;-48
2021/05/12 05:21:03;;;;;;;0.20;0.20;;;17.50;86.20;;;;;;4178482;28;20111;-44
2021/05/12 05:23:24;;;;;;;0.85;0.85;;;17.50;86.30;;;;;;4179956;28;20053;-47
2021/05/12 05:25:46;;;;;;;1.00;0.93;;;17.50;87.20;;;;;;4177272;28;20052;-48
2021/05/12 05:28:08;;;;;;;0.17;0.17;;;17.60;87.00;;;;;;4191120;28;20465;-46
2021/05/12 05:30:30;;;;;;;;;;;17.60;86.50;;;;;;4185035;28;20053;-46
2021/05/12 05:33:11;;;;;;;3.55;1.13;;;17.60;86.40;;;;;;4177642;28;19924;-46
2021/05/12 05:35:51;;;;;;;0.00;0.00;;;17.60;86.40;;;;;;4193172;28;20182;-46
2021/05/12 05:38:31;;;;;;;0.17;0.17;;;17.60;86.40;;;;;;4193407;28;20052;-45
2021/05/12 05:41:31;;;;;;;0.17;0.17;;;17.60;86.40;;;;;;4159047;28;20069;-49
2021/05/12 05:44:12;;;;;;;0.28;0.28;;;17.60;86.40;;;;;;4187281;28;20499;-46
2021/05/12 05:46:53;;;;;;;0.08;0.08;;;17.60;86.40;;;;;;4193264;28;20055;-45
2021/05/12 05:49:41;;;;;;;0.00;0.00;;;17.50;86.40;;;;;;4176546;28;20056;-46
2021/05/12 05:52:22;;;;;;;5.63;2.07;;;17.60;86.50;;;;;;4193173;28;20229;-45
2021/05/12 05:55:02;;;;;;;3.10;1.55;;;17.50;86.50;;;;;;4193034;28;20742;-47
2021/05/12 05:57:42;;;;;;;0.03;0.03;;;17.60;86.50;;;;;;4193184;28;20491;-45
2021/05/12 06:00:23;;;;;;;0.10;0.10;;;17.50;86.40;;;;;;4192760;28;20143;-46
2021/05/12 06:02:46;;;;;;;0.40;0.40;;;17.60;86.40;;;;;;4192928;28;20048;-49
2021/05/12 06:05:27;;;;;;;0.00;0.00;;;17.50;86.30;;;;;;4190219;28;20077;-50
2021/05/12 06:08:11;;;;;;;0.63;0.63;;;17.60;86.40;;;;;;4161476;28;20510;-47
2021/05/12 06:10:51;;;;;;;0.60;0.60;;;17.60;86.30;;;;;;4192676;28;20078;-45
2021/05/12 06:13:32;;;;;;;0.10;0.10;;;17.60;86.70;;;;;;4190155;28;20418;-45
2021/05/12 06:16:18;;;;;;;0.63;0.63;;;17.60;86.80;;;;;;4161627;28;20048;-46
2021/05/12 06:18:59;;;;;;;1.58;1.52;;;17.60;87.30;;;;;;4192164;28;20044;-47
2021/05/12 06:21:44;;;;;;;8.65;3.50;;;17.60;91.60;;;;;;4155184;28;20049;-46
2021/05/12 06:24:38;;;;;;;0.17;0.17;;;17.70;91.90;;;;;;4153907;28;20052;-45
2021/05/12 06:27:19;;;;;;;0.32;0.30;;;17.80;91.90;;;;;;4192388;28;20053;-45
2021/05/12 06:30:02;;;;;;;0.45;0.45;;;17.80;91.50;;;;;;4191835;28;20159;-45
2021/05/12 06:32:43;;;;;;;1.00;1.00;;;17.80;90.90;;;;;;4203723;28;20051;-46
2021/05/12 06:35:25;;;;;;;0.70;0.70;;;17.80;90.10;;;;;;4192576;28;20504;-47
2021/05/12 06:38:10;;;;;;;1.58;0.80;;;17.80;89.50;;;;;;4205521;28;20044;-48
2021/05/12 06:40:32;;;;;;;0.15;0.15;;;17.90;89.90;;;;;;4209326;28;20052;-45
2021/05/12 06:42:53;;;;;;;5.05;0.60;;;17.90;88.60;;;;;;4208963;28;20051;-46
2021/05/12 06:45:15;;;;;;;;;;;17.90;88.10;;;;;;4209289;28;20051;-45
2021/05/12 06:47:36;;;;;;;1.85;1.42;;;18.00;87.60;;;;;;4203469;28;19920;-46
2021/05/12 06:49:59;;;;;;;0.45;0.45;;;18.10;86.80;;;;;;4189281;28;20567;-45
2021/05/12 06:52:21;;;;;;;0.38;0.38;;;18.20;85.30;;;;;;4192649;28;20056;-45
2021/05/12 06:54:43;;;;;;;0.52;0.52;;;18.30;84.30;;;;;;4179618;28;20110;-45
2021/05/12 06:57:05;;;;;;;0.00;0.00;;;18.30;83.40;;;;;;4185181;28;20056;-44
2021/05/12 06:59:26;;;;;;;0.52;0.52;;;18.30;83.00;;;;;;4184738;28;20048;-44
2021/05/12 07:01:48;;;;;;;0.05;0.05;;;18.30;82.80;;;;;;4196062;28;20153;-44
2021/05/12 07:04:10;;;;;;;0.10;0.10;;;18.30;82.70;;;;;;4193947;28;20056;-46
2021/05/12 07:06:31;;;;;;;;;;;18.40;82.50;;;;;;4189978;28;20052;-47
2021/05/12 07:08:53;;;;;;;0.85;0.85;;;18.40;82.00;;;;;;4192605;28;19969;-46
2021/05/12 07:11:15;;;;;;;0.10;0.10;;;18.50;81.70;;;;;;4202382;28;20040;-47
2021/05/12 07:13:37;;;;;;;0.30;0.30;;;18.50;81.20;;;;;;4184525;28;20048;-46
2021/05/12 07:15:58;;;;;;;0.55;0.55;;;18.60;80.20;;;;;;4191776;28;20052;-45
2021/05/12 07:18:20;;;;;;;0.00;0.00;;;18.60;79.30;;;;;;4206263;28;20119;-46
2021/05/12 07:20:43;;;;;;;0.52;0.52;;;18.70;78.70;;;;;;4204300;28;20048;-46
2021/05/12 07:23:06;;;;;;;0.00;0.00;;;18.70;78.60;;;;;;4191441;28;20446;-52
2021/05/12 07:25:28;;;;;;;0.00;0.00;;;18.80;78.70;;;;;;4198397;28;20174;-46
2021/05/12 07:27:49;;;;;;;0.00;0.00;;;18.80;79.00;;;;;;4202911;28;20513;-46
2021/05/12 07:30:11;;;;;;;;;;;18.80;79.30;;;;;;4191922;28;20044;-48
2021/05/12 07:32:33;;;;;;;0.00;0.00;;;18.90;79.10;;;;;;4191618;28;20011;-46
2021/05/12 07:34:55;;;;;;;0.43;0.25;;;18.90;78.50;;;;;;4201994;28;20044;-46
2021/05/12 07:37:16;;;;;;;0.13;0.13;;;19.00;77.90;;;;;;4202900;28;20048;-47
2021/05/12 07:39:38;;;;;;;0.10;0.10;;;19.00;77.00;;;;;;4196212;28;20151;-44
2021/05/12 07:42:04;;;;;;;5.93;0.88;;;19.00;76.80;;;;;;4192710;28;20053;-44
2021/05/12 07:44:25;;;;;;;0.30;0.30;;;19.00;76.50;;;;;;4208188;28;20048;-45
2021/05/12 07:46:47;;;;;;;0.88;0.88;;;19.00;76.20;;;;;;4208287;28;20143;-45
2021/05/12 07:49:09;;;;;;;0.00;0.00;;;19.00;76.50;;;;;;4208253;28;20068;-45
2021/05/12 07:51:30;;;;;;;0.20;0.20;;;19.00;76.70;;;;;;4195802;28;20052;-44
2021/05/12 07:53:53;;;;;;;1.95;1.85;;;19.00;76.20;;;;;;4191183;28;20037;-44
2021/05/12 07:56:15;;;;;;;1.23;1.15;;;19.00;76.20;;;;;;4196321;28;20048;-44
2021/05/12 07:58:37;;;;;;;0.38;0.38;;;19.00;76.50;;;;;;4207923;28;20052;-45
2021/05/12 08:01:05;;;;;;;0.00;0.00;;;19.00;76.40;;;;;;4198377;28;20399;-46
2021/05/12 08:03:27;;;;;;;0.20;0.20;;;19.00;76.20;;;;;;4191400;28;20051;-44
2021/05/12 08:05:49;;;;;;;0.00;0.00;;;19.00;75.60;;;;;;4205176;28;20063;-44
2021/05/12 08:08:11;;;;;;;0.05;0.05;;;19.00;75.10;;;;;;4194816;28;20040;-45
2021/05/12 08:10:33;;;;;;;0.00;0.00;;;19.00;74.70;;;;;;4196013;28;20053;-46
2021/05/12 08:12:54;;;;;;;0.20;0.10;;;19.00;74.70;;;;;;4192601;28;20056;-45
2021/05/12 08:15:16;;;;;;;0.10;0.10;;;19.00;74.90;;;;;;4203323;28;20154;-45
2021/05/12 08:17:38;;;;;;;0.00;0.00;;;19.00;74.90;;;;;;4200739;28;20753;-46
2021/05/12 08:20:01;;;;;;;0.45;0.45;;;19.00;74.70;;;;;;4190925;28;20052;-44
2021/05/12 08:22:23;;;;;;;0.10;0.10;;;19.00;74.40;;;;;;4205967;28;20044;-46
2021/05/12 08:24:45;;;;;;;0.40;0.40;;;19.10;75.30;;;;;;4190839;28;20110;-47
2021/05/12 08:27:06;;;;;;;;;;;19.10;75.30;;;;;;4191588;28;20068;-44
2021/05/12 08:29:29;;;;;;;0.32;0.32;;;19.10;74.10;;;;;;4192461;28;20365;-45
2021/05/12 08:31:51;;;;;;;0.20;0.20;;;19.10;73.10;;;;;;4205860;28;20071;-45
2021/05/12 08:34:13;;;;;;;0.25;0.25;;;19.10;73.10;;;;;;4207310;28;20485;-47
2021/05/12 08:36:34;;;;;;;0.15;0.15;;;19.20;72.40;;;;;;4201904;28;20072;-49
2021/05/12 08:38:58;;;;;;;0.00;0.00;;;19.20;71.50;;;;;;4190402;28;20763;-45
2021/05/12 08:41:20;;;;;;;0.15;0.15;;;19.10;71.10;;;;;;4189980;28;20044;-46
2021/05/12 08:43:42;;;;;;;0.08;0.08;;;19.10;71.00;;;;;;4191065;28;20049;-48
2021/05/12 08:46:04;;;;;;;0.00;0.00;;;19.20;70.80;;;;;;4191025;28;20491;-47
2021/05/12 08:48:26;;;;;;;3.20;1.55;;;19.20;70.90;;;;;;4192376;28;20045;-47
2021/05/12 08:50:47;;;;;;;0.03;0.03;;;19.20;70.60;;;;;;4191445;28;20068;-45
2021/05/12 08:53:10;;;;;;;0.00;0.00;;;19.20;70.10;;;;;;4192269;28;20548;-48
2021/05/12 08:55:32;;;;;;;0.00;0.00;;;19.20;69.50;;;;;;4194238;28;20045;-48
2021/05/12 08:57:55;;;;;;;0.00;0.00;;;19.20;69.40;;;;;;4194205;28;20154;-47
2021/05/12 09:00:17;;;;;;;1.10;0.80;;;19.30;69.60;;;;;;4195015;28;20129;-45
2021/05/12 09:02:39;;;;;;;0.00;0.00;;;19.30;69.80;;;;;;4194262;28;20052;-46
2021/05/12 09:05:04;;;;;;;0.15;0.15;;;19.30;70.00;;;;;;4193857;28;20063;-47
2021/05/12 09:07:26;;;;;;;0.25;0.15;;;19.30;69.50;;;;;;4194020;28;20044;-49
2021/05/12 09:09:48;;;;;;;0.00;0.00;;;19.30;68.90;;;;;;4193711;28;20748;-45
2021/05/12 09:12:12;;;;;;;0.10;0.10;;;19.30;69.00;;;;;;4194178;28;20059;-45
2021/05/12 09:14:36;;;;;;;0.00;0.00;;;19.30;69.10;;;;;;4194003;28;20052;-47
2021/05/12 09:16:58;;;;;;;0.00;0.00;;;19.40;69.40;;;;;;4193953;28;20155;-48
2021/05/12 09:19:23;;;;;;;0.00;0.00;;;19.40;69.60;;;;;;4193713;28;20491;-46
2021/05/12 09:21:47;;;;;;;0.00;0.00;;;19.40;69.80;;;;;;4193886;28;20449;-47
2021/05/12 09:24:19;;;;;;;0.00;0.00;;;19.40;69.10;;;;;;4193773;28;20044;-49
2021/05/12 09:26:45;;;;;;;0.00;0.00;;;19.40;69.00;;;;;;4193665;28;20051;-48
2021/05/12 09:29:06;;;;;;;0.10;0.10;;;19.40;68.30;;;;;;4177018;28;20061;-46
2021/05/12 09:31:35;;;;;;;;;;;19.40;67.60;;;;;;4189146;28;20048;-48
2021/05/12 09:34:00;;;;;;;0.00;0.00;;;19.50;66.50;;;;;;4194048;28;20394;-48
2021/05/12 09:36:29;;;;;;;0.00;0.00;;;19.50;65.90;;;;;;4193368;28;20045;-47
2021/05/12 09:38:54;;;;;;;0.00;0.00;;;19.50;65.70;;;;;;4192137;28;20445;-47
2021/05/12 09:41:16;;;;;;;0.00;0.00;;;19.50;66.10;;;;;;4193770;28;20047;-45
2021/05/12 09:43:45;;;;;;;0.00;0.00;;;19.50;66.70;;;;;;4193412;28;20043;-50
2021/05/12 09:46:18;;;;;;;0.00;0.00;;;19.50;67.20;;;;;;4193101;28;20185;-49
2021/05/12 09:48:40;;;;;;;0.43;0.43;;;19.50;67.30;;;;;;4193273;28;20041;-48
2021/05/12 09:51:01;;;;;;;0.00;0.00;;;19.50;67.50;;;;;;4193536;28;20047;-46
2021/05/12 09:53:23;;;;;;;0.00;0.00;;;19.50;67.70;;;;;;4193042;28;20074;-48
2021/05/12 09:55:48;;;;;;;0.00;0.00;;;19.50;67.30;;;;;;4190527;28;20495;-46
2021/05/12 09:58:10;;;;;;;0.00;0.00;;;19.50;67.10;;;;;;4191996;28;20047;-46
2021/05/12 10:00:34;;;;;;;0.00;0.00;;;19.60;67.40;;;;;;4189125;28;20056;-47
2021/05/12 10:02:56;;;;;;;0.20;0.20;;;19.60;67.50;;;;;;4193057;28;20132;-49
2021/05/12 10:05:18;;;;;;;0.00;0.00;;;19.60;67.30;;;;;;4175724;28;20049;-47
2021/05/12 10:07:50;;;;;;;0.00;0.00;;;19.60;67.40;;;;;;4176478;28;20045;-45
2021/05/12 10:10:11;;;;;;;0.00;0.00;;;19.60;67.20;;;;;;4189549;28;20048;-49
2021/05/12 10:12:34;;;;;;;0.00;0.00;;;19.70;67.20;;;;;;4209594;28;20631;-48
2021/05/12 10:14:57;;;;;;;0.00;0.00;;;19.70;66.70;;;;;;4199143;28;20042;-46
2021/05/12 10:17:20;;;;;;;0.00;0.00;;;19.70;66.60;;;;;;4195405;28;20048;-47
2021/05/12 10:19:45;;;;;;;0.00;0.00;;;19.70;66.70;;;;;;4193089;28;20064;-46
2021/05/12 10:22:09;;;;;;;0.05;0.05;;;19.70;66.60;;;;;;4193108;28;20450;-51
2021/05/12 10:24:32;;;;;;;0.00;0.00;;;19.70;66.20;;;;;;4192627;28;20052;-47
2021/05/12 10:26:54;;;;;;;0.15;0.15;;;19.70;66.50;;;;;;4195214;28;20135;-51
2021/05/12 10:29:19;;;;;;;0.00;0.00;;;19.70;66.30;;;;;;4193547;28;20048;-49
2021/05/12 10:31:41;;;;;;;0.00;0.00;;;19.60;66.30;;;;;;4192821;28;20486;-46
2021/05/12 10:34:02;;;;;;;0.03;0.03;;;19.70;66.20;;;;;;4194310;28;20491;-45
2021/05/12 10:36:24;;;;;;;0.08;0.08;;;19.60;66.40;;;;;;4209624;28;20071;-50
2021/05/12 10:38:47;;;;;;;0.10;0.10;;;19.60;66.60;;;;;;4209456;28;20380;-49
2021/05/12 10:41:42;;;;;;;0.00;0.00;;;19.70;66.90;;;;;;4196424;28;20127;-49
2021/05/12 10:44:10;;;;;;;0.00;0.00;;;19.70;66.90;;;;;;4192499;28;20048;-49
2021/05/12 10:46:46;;;;;;;0.00;0.00;;;19.60;66.90;;;;;;4192093;28;20052;-47
2021/05/12 10:49:07;;;;;;;0.00;0.00;;;19.70;67.20;;;;;;4192388;28;20055;-47
2021/05/12 10:51:34;;;;;;;0.05;0.05;;;19.70;67.20;;;;;;4192535;28;20052;-47
2021/05/12 10:53:58;;;;;;;0.00;0.00;;;19.70;67.10;;;;;;4192479;28;20055;-49
2021/05/12 10:56:21;;;;;;;0.00;0.00;;;19.70;67.00;;;;;;4192509;28;20051;-52
2021/05/12 10:58:59;;;;;;;0.00;0.00;;;19.70;67.00;;;;;;4192539;28;20075;-47
2021/05/12 11:01:21;;;;;;;0.88;0.70;;;19.70;66.70;;;;;;4194410;28;20135;-47
2021/05/12 11:04:19;;;;;;;0.45;0.45;;;19.70;66.70;;;;;;4192291;28;20048;-49
2021/05/12 11:07:01;;;;;;;0.00;0.00;;;19.70;66.90;;;;;;4191787;28;20093;-51
2021/05/12 11:09:46;;;;;;;0.00;0.00;;;19.70;66.80;;;;;;4191986;28;20040;-49
2021/05/12 11:12:08;;;;;;;0.00;0.00;;;19.70;66.70;;;;;;4175482;28;20132;-48
2021/05/12 11:14:32;;;;;;;0.10;0.10;;;19.70;66.60;;;;;;4175707;28;20049;-47
2021/05/12 11:17:00;;;;;;;0.00;0.00;;;19.80;66.30;;;;;;4191283;28;20052;-48
2021/05/12 11:19:38;;;;;;;0.00;0.00;;;19.80;66.00;;;;;;4193718;28;20044;-49
2021/05/12 11:22:35;;;;;;;0.00;0.00;;;19.80;66.20;;;;;;4208504;28;20076;-51
2021/05/12 11:25:01;;;;;;;0.00;0.00;;;19.80;65.40;;;;;;4208562;28;20121;-46
2021/05/12 11:27:30;;;;;;;0.00;0.00;;;19.80;65.30;;;;;;4208951;28;20055;-46
2021/05/12 11:32:34;;;;;;;0.63;0.38;;;19.80;65.00;;;;;;4208543;28;20130;-45
2021/05/12 11:34:57;;;;;;;0.00;0.00;;;19.80;65.10;;;;;;4208641;28;20383;-46
2021/05/12 11:37:21;;;;;;;0.00;0.00;;;19.80;65.20;;;;;;4209128;28;20490;-50
2021/05/12 11:39:48;;;;;;;0.00;0.00;;;19.90;65.30;;;;;;4207074;28;20074;-45
2021/05/12 11:42:21;;;;;;;0.00;0.00;;;19.80;65.30;;;;;;4208316;28;20083;-51
2021/05/12 11:44:42;;;;;;;0.32;0.32;;;19.80;65.30;;;;;;4207879;28;20154;-48
2021/05/12 11:47:04;;;;;;;0.00;0.00;;;19.80;65.10;;;;;;4208290;28;20143;-45
2021/05/12 11:49:29;;;;;;;1.13;0.32;;;19.90;65.20;;;;;;4208358;28;20498;-48
2021/05/12 11:51:54;;;;;;;0.00;0.00;;;19.90;65.30;;;;;;4203565;28;20055;-45
2021/05/12 11:54:18;;;;;;;0.00;0.00;;;19.80;65.20;;;;;;4198937;28;20117;-46
2021/05/12 11:56:41;;;;;;;2.17;0.95;;;19.80;65.20;;;;;;4208215;28;20548;-49
2021/05/12 11:59:04;;;;;;;0.00;0.00;;;19.80;65.20;;;;;;4207900;28;20044;-45
2021/05/12 12:01:28;;;;;;;0.00;0.00;;;19.80;65.20;;;;;;4207826;28;20051;-47
2021/05/12 12:04:00;;;;;;;0.00;0.00;;;19.80;65.30;;;;;;4208002;28;20372;-46
2021/05/12 12:06:22;;;;;;;0.00;0.00;;;19.80;65.30;;;;;;4207522;28;20047;-48
2021/05/12 12:08:45;;;;;;;1.30;0.90;;;19.90;65.30;;;;;;4208079;28;20498;-45
2021/05/12 12:11:10;;;;;;;0.00;0.00;;;19.80;66.20;;;;;;4207778;28;20452;-46
2021/05/12 12:13:31;;;;;;;0.00;0.00;;;19.90;65.30;;;;;;4208183;28;20048;-46
2021/05/12 12:15:57;;;;;;;0.00;0.00;;;19.90;65.30;;;;;;4207739;28;20050;-47
2021/05/12 12:18:27;;;;;;;0.00;0.00;;;19.90;65.00;;;;;;4207011;28;20521;-47
2021/05/12 12:20:48;;;;;;;0.15;0.15;;;20.00;65.00;;;;;;4207259;28;20067;-47
2021/05/12 12:23:14;;;;;;;0.00;0.00;;;20.00;64.90;;;;;;4198590;28;20062;-47
2021/05/12 12:25:42;;;;;;;0.00;0.00;;;20.00;64.70;;;;;;4198734;28;20048;-47
2021/05/12 12:28:03;;;;;;;0.00;0.00;;;20.00;64.70;;;;;;4191034;28;20090;-46
2021/05/12 12:30:25;;;;;;;0.00;0.00;;;20.10;64.70;;;;;;4190955;28;20044;-44
2021/05/12 12:32:46;;;;;;;1.45;0.98;;;20.00;64.90;;;;;;4191243;28;20052;-46
2021/05/12 12:35:09;;;;;;;0.00;0.00;;;20.00;65.60;;;;;;4194885;28;20498;-45
2021/05/12 12:37:32;;;;;;;0.00;0.00;;;20.00;65.80;;;;;;4200769;28;20470;-45
2021/05/12 12:39:56;;;;;;;0.08;0.08;;;20.10;65.20;;;;;;4207060;28;20040;-48